Wetterdaten: Woche 11.06.18 - 17.06.18 (KW24)
Datum Zeit Temp. Aussen Temp. o. S. +5cm Feuchte Auss Luftdruck Regen Sonnenschein Regendauer Solar Windben Empfang
11.06.2018 00:00 19,7 C 18,5 C 18,3 C 83 % 1010,9 hPa 0,0 l/m 0,00 h 0,00 h 0 W/m 6,5 km/h (2 Bft) 99,03 %
11.06.2018 01:00 18,5 C 17,2 C 17,1 C 86 % 1011,2 hPa 0,0 l/m 0,00 h 0,00 h 0 W/m 5,0 km/h (1 Bft) 96,68 %
11.06.2018 02:00 17,4 C 16,6 C 16,5 C 88 % 1011,3 hPa 0,0 l/m 0,00 h 0,00 h 0 W/m 3,9 km/h (1 Bft) 96,24 %
11.06.2018 03:00 16,9 C 16,1 C 16,1 C 89 % 1010,8 hPa 0,0 l/m 0,00 h 0,00 h 0 W/m 4,8 km/h (1 Bft) 98,36 %
11.06.2018 04:00 16,4 C 15,4 C 15,5 C 90 % 1010,6 hPa 0,0 l/m 0,00 h 0,00 h 0 W/m 4,3 km/h (1 Bft) 98,24 %
11.06.2018 05:00 15,6 C 14,5 C 14,7 C 91 % 1010,5 hPa 0,0 l/m 0,00 h 0,00 h 9 W/m 4,0 km/h (1 Bft) 97,75 %
11.06.2018 06:00 15,2 C 15,0 C 14,7 C 92 % 1010,5 hPa 0,0 l/m 0,00 h 0,00 h 42 W/m 5,1 km/h (1 Bft) 95,57 %
11.06.2018 07:00 15,7 C 16,6 C 15,4 C 91 % 1010,7 hPa 0,0 l/m 0,00 h 0,00 h 102 W/m 7,3 km/h (2 Bft) 99,36 %
11.06.2018 08:00 17,1 C 18,7 C 16,5 C 89 % 1010,9 hPa 0,0 l/m 0,00 h 0,00 h 133 W/m 7,8 km/h (2 Bft) 97,92 %
11.06.2018 09:00 18,4 C 19,8 C 17,5 C 83 % 1011,0 hPa 0,0 l/m 0,00 h 0,00 h 142 W/m 10,2 km/h (2 Bft) 96,15 %
11.06.2018 10:00 19,4 C 20,8 C 18,3 C 79 % 1010,7 hPa 0,0 l/m 0,00 h 0,00 h 220 W/m 10,8 km/h (2 Bft) 98,51 %
11.06.2018 11:00 21,1 C 26,3 C 19,6 C 73 % 1010,8 hPa 0,0 l/m 0,47 h 0,00 h 542 W/m 13,1 km/h (3 Bft) 98,29 %
11.06.2018 12:00 23,5 C 29,8 C 21,1 C 65 % 1010,6 hPa 0,0 l/m 1,00 h 0,00 h 822 W/m 9,9 km/h (2 Bft) 96,94 %
11.06.2018 13:00 23,9 C 27,5 C 22,1 C 62 % 1010,0 hPa 0,0 l/m 0,53 h 0,00 h 483 W/m 13,1 km/h (3 Bft) 96,14 %
11.06.2018 14:00 23,9 C 24,5 C 22,2 C 60 % 1009,4 hPa 0,0 l/m 0,00 h 0,00 h 180 W/m 11,7 km/h (2 Bft) 99,65 %
11.06.2018 15:00 24,0 C 24,6 C 22,2 C 60 % 1008,6 hPa 0,0 l/m 0,67 h 0,00 h 462 W/m 13,4 km/h (3 Bft) 97,51 %
11.06.2018 16:00 24,1 C 25,3 C 22,2 C 58 % 1008,5 hPa 0,0 l/m 0,53 h 0,00 h 431 W/m 11,2 km/h (2 Bft) 95,09 %
11.06.2018 17:00 23,1 C 22,7 C 20,8 C 60 % 1008,3 hPa 0,0 l/m 0,00 h 0,00 h 154 W/m 7,8 km/h (2 Bft) 99,57 %
11.06.2018 18:00 21,9 C 21,4 C 20,0 C 65 % 1008,1 hPa 0,0 l/m 0,00 h 0,00 h 84 W/m 5,8 km/h (2 Bft) 97,43 %
11.06.2018 19:00 21,5 C 21,1 C 20,0 C 65 % 1008,4 hPa 0,0 l/m 0,00 h 0,07 h 58 W/m 8,3 km/h (2 Bft) 95,66 %
11.06.2018 20:00 21,1 C 20,5 C 19,7 C 65 % 1008,3 hPa 0,0 l/m 0,00 h 0,00 h 28 W/m 8,6 km/h (2 Bft) 99,79 %
11.06.2018 21:00 20,6 C 19,6 C 19,1 C 68 % 1008,7 hPa 0,0 l/m 0,00 h 0,00 h 11 W/m 4,1 km/h (1 Bft) 97,43 %
11.06.2018 22:00 19,9 C 19,0 C 18,8 C 71 % 1009,0 hPa 0,0 l/m 0,00 h 0,00 h 0 W/m 7,0 km/h (2 Bft) 96,17 %
11.06.2018 23:00 19,5 C 18,8 C 18,2 C 70 % 1008,9 hPa 0,0 l/m 0,00 h 0,00 h 0 W/m 9,6 km/h (2 Bft) 99,07 %
12.06.2018 00:00 18,8 C 17,7 C 17,4 C 75 % 1009,1 hPa 0,0 l/m 0,00 h 0,00 h 0 W/m 6,6 km/h (2 Bft) 97,02 %
12.06.2018 01:00 18,0 C 16,9 C 16,8 C 80 % 1009,3 hPa 0,0 l/m 0,00 h 0,00 h 0 W/m 7,7 km/h (2 Bft) 97,87 %
12.06.2018 02:00 17,2 C 16,2 C 16,0 C 83 % 1009,4 hPa 0,0 l/m 0,00 h 0,00 h 0 W/m 6,6 km/h (2 Bft) 97,21 %
12.06.2018 03:00 16,2 C 15,2 C 15,1 C 84 % 1009,6 hPa 0,0 l/m 0,00 h 0,00 h 0 W/m 6,3 km/h (2 Bft) 96,44 %
12.06.2018 04:00 15,4 C 14,5 C 14,4 C 86 % 1009,5 hPa 0,0 l/m 0,00 h 0,00 h 0 W/m 7,5 km/h (2 Bft) 99,15 %
12.06.2018 05:00 14,8 C 14,3 C 13,9 C 88 % 1009,5 hPa 0,0 l/m 0,00 h 0,00 h 9 W/m 6,2 km/h (2 Bft) 98,69 %
12.06.2018 06:00 14,7 C 14,4 C 13,9 C 89 % 1009,7 hPa 0,0 l/m 0,00 h 0,00 h 35 W/m 8,3 km/h (2 Bft) 93,80 %
12.06.2018 07:00 14,8 C 15,0 C 14,2 C 88 % 1010,0 hPa 0,0 l/m 0,00 h 0,00 h 97 W/m 8,4 km/h (2 Bft) 99,64 %
12.06.2018 08:00 15,3 C 15,8 C 14,7 C 86 % 1010,5 hPa 0,0 l/m 0,00 h 0,00 h 148 W/m 9,8 km/h (2 Bft) 98,15 %
12.06.2018 09:00 15,8 C 17,0 C 15,2 C 83 % 1010,5 hPa 0,0 l/m 0,27 h 0,00 h 318 W/m 9,9 km/h (2 Bft) 96,23 %
12.06.2018 10:00 16,9 C 19,2 C 16,3 C 79 % 1010,7 hPa 0,0 l/m 0,87 h 0,00 h 451 W/m 9,0 km/h (2 Bft) 98,93 %
12.06.2018 11:00 18,1 C 20,7 C 17,0 C 75 % 1010,8 hPa 0,0 l/m 0,70 h 0,00 h 445 W/m 8,1 km/h (2 Bft) 97,45 %
12.06.2018 12:00 18,8 C 20,6 C 17,4 C 71 % 1011,2 hPa 0,0 l/m 0,13 h 0,00 h 425 W/m 7,6 km/h (2 Bft) 96,45 %
12.06.2018 13:00 19,2 C 19,9 C 17,7 C 70 % 1011,0 hPa 0,0 l/m 0,00 h 0,00 h 303 W/m 7,5 km/h (2 Bft) 98,08 %
12.06.2018 14:00 18,2 C 17,7 C 16,1 C 77 % 1011,1 hPa 0,0 l/m 0,00 h 0,73 h 298 W/m 9,9 km/h (2 Bft) 98,93 %
12.06.2018 15:00 17,2 C 16,9 C 16,1 C 80 % 1011,2 hPa 0,0 l/m 0,00 h 0,17 h 151 W/m 8,7 km/h (2 Bft) 97,03 %
12.06.2018 16:00 16,6 C 15,2 C 14,4 C 83 % 1011,2 hPa 0,8 l/m 0,00 h 0,83 h 178 W/m 6,3 km/h (2 Bft) 96,64 %
12.06.2018 17:00 17,0 C 16,6 C 15,1 C 85 % 1011,0 hPa 0,0 l/m 0,33 h 0,00 h 311 W/m 6,1 km/h (2 Bft) 98,81 %
12.06.2018 18:00 17,9 C 17,9 C 16,2 C 77 % 1010,8 hPa 0,0 l/m 0,17 h 0,00 h 162 W/m 7,6 km/h (2 Bft) 97,79 %
12.06.2018 19:00 17,6 C 17,2 C 16,2 C 77 % 1010,9 hPa 0,0 l/m 0,00 h 0,00 h 88 W/m 10,2 km/h (2 Bft) 95,84 %
12.06.2018 20:00 17,0 C 16,3 C 15,6 C 78 % 1011,0 hPa 0,0 l/m 0,00 h 0,00 h 31 W/m 10,1 km/h (2 Bft) 98,65 %
12.06.2018 21:00 16,3 C 15,6 C 15,0 C 80 % 1011,6 hPa 0,0 l/m 0,00 h 0,00 h 21 W/m 12,9 km/h (3 Bft) 98,45 %
12.06.2018 22:00 15,5 C 14,6 C 14,4 C 83 % 1012,4 hPa 0,0 l/m 0,00 h 0,00 h 0 W/m 9,2 km/h (2 Bft) 96,94 %
12.06.2018 23:00 14,9 C 14,1 C 13,9 C 84 % 1012,4 hPa 0,0 l/m 0,00 h 0,00 h 0 W/m 7,1 km/h (2 Bft) 96,25 %
13.06.2018 00:00 14,2 C 13,3 C 13,2 C 86 % 1012,5 hPa 0,0 l/m 0,00 h 0,00 h 0 W/m 5,5 km/h (1 Bft) 98,77 %
13.06.2018 01:00 13,3 C 12,1 C 12,5 C 88 % 1012,7 hPa 0,0 l/m 0,00 h 0,00 h 0 W/m 6,0 km/h (2 Bft) 97,51 %
13.06.2018 02:00 12,3 C 11,2 C 11,8 C 90 % 1012,8 hPa 0,0 l/m 0,00 h 0,00 h 0 W/m 3,0 km/h (1 Bft) 97,59 %
13.06.2018 03:00 12,1 C 11,7 C 11,7 C 92 % 1012,9 hPa 0,0 l/m 0,00 h 0,00 h 0 W/m 0,5 km/h (0 Bft) 97,44 %
13.06.2018 04:00 12,4 C 12,1 C 12,2 C 93 % 1013,0 hPa 0,0 l/m 0,00 h 0,00 h 0 W/m 3,0 km/h (1 Bft) 94,89 %
13.06.2018 05:00 12,6 C 12,3 C 12,2 C 93 % 1013,2 hPa 0,0 l/m 0,00 h 0,00 h 9 W/m 5,3 km/h (1 Bft) 99,14 %
13.06.2018 06:00 12,9 C 12,8 C 12,2 C 91 % 1013,3 hPa 0,0 l/m 0,00 h 0,00 h 35 W/m 6,0 km/h (2 Bft) 98,67 %
13.06.2018 07:00 13,2 C 13,5 C 12,8 C 90 % 1013,5 hPa 0,0 l/m 0,00 h 0,00 h 99 W/m 9,8 km/h (2 Bft) 94,95 %
13.06.2018 08:00 14,1 C 14,9 C 13,4 C 87 % 1013,7 hPa 0,0 l/m 0,00 h 0,00 h 190 W/m 11,3 km/h (2 Bft) 99,50 %
13.06.2018 09:00 14,8 C 15,7 C 14,0 C 83 % 1014,1 hPa 0,0 l/m 0,07 h 0,00 h 227 W/m 13,0 km/h (3 Bft) 97,59 %
13.06.2018 10:00 14,9 C 15,2 C 13,9 C 82 % 1014,5 hPa 0,0 l/m 0,00 h 0,00 h 202 W/m 12,5 km/h (3 Bft) 95,97 %
13.06.2018 11:00 15,0 C 15,4 C 14,0 C 80 % 1014,6 hPa 0,0 l/m 0,00 h 0,00 h 200 W/m 10,7 km/h (2 Bft) 98,86 %
13.06.2018 12:00 15,9 C 17,6 C 15,1 C 75 % 1014,6 hPa 0,0 l/m 0,40 h 0,00 h 404 W/m 15,5 km/h (3 Bft) 97,28 %
13.06.2018 13:00 16,7 C 17,8 C 15,5 C 70 % 1014,8 hPa 0,0 l/m 0,07 h 0,00 h 388 W/m 17,0 km/h (3 Bft) 96,51 %
13.06.2018 14:00 17,8 C 19,6 C 16,7 C 67 % 1014,7 hPa 0,0 l/m 0,83 h 0,00 h 537 W/m 15,6 km/h (3 Bft) 98,36 %
13.06.2018 15:00 18,0 C 19,9 C 16,7 C 66 % 1014,6 hPa 0,0 l/m 0,53 h 0,00 h 518 W/m 14,3 km/h (3 Bft) 98,43 %
13.06.2018 16:00 18,7 C 19,8 C 17,1 C 64 % 1014,4 hPa 0,0 l/m 0,40 h 0,00 h 348 W/m 15,0 km/h (3 Bft) 96,23 %
13.06.2018 17:00 18,0 C 18,5 C 16,6 C 65 % 1014,6 hPa 0,0 l/m 0,40 h 0,00 h 267 W/m 12,3 km/h (3 Bft) 96,87 %
13.06.2018 18:00 17,9 C 18,1 C 16,6 C 66 % 1014,6 hPa 0,0 l/m 0,00 h 0,00 h 209 W/m 10,7 km/h (2 Bft) 99,57 %
13.06.2018 19:00 17,3 C 16,9 C 16,1 C 68 % 1015,1 hPa 0,0 l/m 0,00 h 0,00 h 95 W/m 8,0 km/h (2 Bft) 96,80 %
13.06.2018 20:00 16,9 C 16,3 C 15,6 C 69 % 1015,1 hPa 0,0 l/m 0,00 h 0,00 h 61 W/m 3,8 km/h (1 Bft) 96,51 %
13.06.2018 21:00 15,9 C 14,3 C 13,8 C 73 % 1015,1 hPa 0,0 l/m 0,00 h 0,00 h 11 W/m 0,8 km/h (0 Bft) 99,52 %
13.06.2018 22:00 14,2 C 12,3 C 12,2 C 79 % 1015,5 hPa 0,0 l/m 0,00 h 0,00 h 0 W/m 0,0 km/h (0 Bft) 97,37 %
13.06.2018 23:00 12,7 C 11,0 C 11,2 C 84 % 1015,4 hPa 0,0 l/m 0,00 h 0,03 h 0 W/m 0,0 km/h (0 Bft) 97,16 %
14.06.2018 00:00 11,6 C 10,5 C 10,6 C 86 % 1015,2 hPa 0,0 l/m 0,00 h 0,00 h 0 W/m 0,0 km/h (0 Bft) 95,76 %
14.06.2018 01:00 10,8 C 9,8 C 10,1 C 88 % 1015,0 hPa 0,0 l/m 0,00 h 0,00 h 0 W/m 0,0 km/h (0 Bft) 98,80 %
14.06.2018 02:00 10,1 C 9,1 C 9,4 C 89 % 1014,8 hPa 0,0 l/m 0,00 h 0,00 h 0 W/m 0,0 km/h (0 Bft) 96,36 %
14.06.2018 03:00 9,7 C 9,4 C 9,4 C 91 % 1014,7 hPa 0,0 l/m 0,00 h 0,00 h 0 W/m 0,3 km/h (0 Bft) 99,23 %
14.06.2018 04:00 9,8 C 9,5 C 9,4 C 93 % 1014,5 hPa 0,0 l/m 0,00 h 0,00 h 0 W/m 0,5 km/h (0 Bft) 97,80 %
14.06.2018 05:00 9,7 C 9,4 C 9,4 C 94 % 1014,3 hPa 0,0 l/m 0,00 h 0,00 h 13 W/m 5,1 km/h (1 Bft) 95,90 %
14.06.2018 06:00 9,9 C 10,1 C 10,0 C 95 % 1014,1 hPa 0,0 l/m 0,00 h 0,00 h 50 W/m 5,6 km/h (1 Bft) 97,14 %
14.06.2018 07:00 10,9 C 12,0 C 11,1 C 95 % 1014,1 hPa 0,0 l/m 0,00 h 0,00 h 80 W/m 7,7 km/h (2 Bft) 99,22 %
14.06.2018 08:00 13,3 C 15,3 C 13,0 C 91 % 1013,9 hPa 0,0 l/m 0,87 h 0,00 h 327 W/m 9,1 km/h (2 Bft) 97,29 %
14.06.2018 09:00 15,9 C 17,7 C 15,5 C 82 % 1013,6 hPa 0,0 l/m 1,00 h 0,00 h 480 W/m 8,9 km/h (2 Bft) 96,30 %
14.06.2018 10:00 18,3 C 20,0 C 17,3 C 68 % 1013,3 hPa 0,0 l/m 0,67 h 0,00 h 487 W/m 9,9 km/h (2 Bft) 97,95 %
14.06.2018 11:00 20,2 C 24,3 C 18,9 C 61 % 1013,0 hPa 0,0 l/m 0,67 h 0,00 h 646 W/m 9,8 km/h (2 Bft) 97,92 %
14.06.2018 12:00 21,3 C 23,3 C 19,8 C 60 % 1012,9 hPa 0,0 l/m 0,53 h 0,00 h 529 W/m 9,9 km/h (2 Bft) 97,99 %
14.06.2018 13:00 21,9 C 23,4 C 20,7 C 57 % 1012,7 hPa 0,0 l/m 0,77 h 0,00 h 564 W/m 11,1 km/h (2 Bft) 96,01 %
14.06.2018 14:00 22,4 C 23,5 C 21,2 C 57 % 1012,3 hPa 0,0 l/m 0,93 h 0,03 h 604 W/m 9,8 km/h (2 Bft) 98,50 %
14.06.2018 15:00 22,0 C 22,2 C 20,4 C 59 % 1012,0 hPa 0,0 l/m 0,07 h 0,10 h 321 W/m 8,7 km/h (2 Bft) 97,15 %
14.06.2018 16:00 20,4 C 17,7 C 17,3 C 71 % 1012,2 hPa 0,4 l/m 0,00 h 1,00 h 143 W/m 6,5 km/h (2 Bft) 97,57 %
14.06.2018 17:00 18,4 C 15,9 C 15,7 C 85 % 1012,4 hPa 1,0 l/m 0,00 h 1,00 h 109 W/m 2,8 km/h (1 Bft) 98,80 %
14.06.2018 18:00 17,6 C 15,7 C 15,5 C 90 % 1012,5 hPa 0,0 l/m 0,00 h 0,27 h 62 W/m 2,1 km/h (1 Bft) 98,09 %
14.06.2018 19:00 17,1 C 16,0 C 15,4 C 91 % 1012,6 hPa 0,0 l/m 0,00 h 0,00 h 92 W/m 2,8 km/h (1 Bft) 94,59 %
14.06.2018 20:00 17,3 C 16,5 C 16,0 C 91 % 1012,9 hPa 0,0 l/m 0,00 h 0,00 h 50 W/m 3,9 km/h (1 Bft) 99,50 %
14.06.2018 21:00 17,1 C 15,5 C 15,5 C 91 % 1013,3 hPa 0,2 l/m 0,00 h 0,10 h 8 W/m 3,1 km/h (1 Bft) 98,58 %
14.06.2018 22:00 16,4 C 15,2 C 15,3 C 91 % 1013,9 hPa 0,0 l/m 0,00 h 0,00 h 0 W/m 2,4 km/h (1 Bft) 95,40 %
14.06.2018 23:00 16,1 C 15,5 C 15,2 C 93 % 1014,0 hPa 0,0 l/m 0,00 h 0,00 h 0 W/m 1,8 km/h (1 Bft) 97,79 %
15.06.2018 00:00 16,0 C 15,1 C 14,7 C 94 % 1014,2 hPa 0,0 l/m 0,00 h 0,13 h 0 W/m 1,9 km/h (1 Bft) 98,02 %
15.06.2018 01:00 15,8 C 14,4 C 14,5 C 95 % 1014,2 hPa 0,0 l/m 0,00 h 0,00 h 0 W/m 1,1 km/h (1 Bft) 97,09 %
15.06.2018 02:00 15,4 C 14,4 C 14,4 C 96 % 1014,1 hPa 0,0 l/m 0,00 h 0,00 h 0 W/m 0,1 km/h (0 Bft) 98,72 %
15.06.2018 03:00 15,3 C 14,4 C 14,4 C 96 % 1013,8 hPa 0,0 l/m 0,00 h 0,00 h 0 W/m 0,0 km/h (0 Bft) 95,81 %
15.06.2018 04:00 15,2 C 14,4 C 14,1 C 97 % 1013,7 hPa 0,0 l/m 0,00 h 0,00 h 0 W/m 0,0 km/h (0 Bft) 97,53 %
15.06.2018 05:00 15,2 C 14,4 C 14,3 C 97 % 1013,9 hPa 0,0 l/m 0,00 h 0,00 h 12 W/m 0,0 km/h (0 Bft) 99,49 %
15.06.2018 06:00 15,2 C 14,8 C 14,4 C 98 % 1014,3 hPa 0,0 l/m 0,00 h 0,00 h 42 W/m 0,0 km/h (0 Bft) 95,52 %
15.06.2018 07:00 15,7 C 16,3 C 15,1 C 98 % 1014,5 hPa 0,0 l/m 0,10 h 0,00 h 114 W/m 0,0 km/h (0 Bft) 97,35 %
15.06.2018 08:00 16,4 C 17,9 C 15,9 C 97 % 1014,8 hPa 0,0 l/m 0,38 h 0,00 h 234 W/m 0,8 km/h (0 Bft) 98,95 %
15.06.2018 09:00 17,4 C 19,4 C 16,7 C 93 % 1014,9 hPa 0,0 l/m 0,30 h 0,00 h 269 W/m 0,1 km/h (0 Bft) 95,66 %
15.06.2018 10:00 19,1 C 22,8 C 18,0 C 84 % 1014,9 hPa 0,0 l/m 0,93 h 0,00 h 655 W/m 3,0 km/h (1 Bft) 97,44 %
15.06.2018 11:00 21,9 C 28,1 C 19,6 C 72 % 1014,7 hPa 0,0 l/m 0,87 h 0,00 h 843 W/m 6,5 km/h (2 Bft) 98,79 %
15.06.2018 12:00 23,4 C 28,6 C 20,7 C 65 % 1014,7 hPa 0,0 l/m 0,67 h 0,00 h 755 W/m 7,6 km/h (2 Bft) 97,52 %
15.06.2018 13:00 24,8 C 27,9 C 22,3 C 61 % 1014,5 hPa 0,2 l/m 1,00 h 0,00 h 975 W/m 8,2 km/h (2 Bft) 96,01 %
15.06.2018 14:00 23,7 C 19,7 C 16,8 C 65 % 1013,9 hPa 0,0 l/m 0,80 h 0,00 h 824 W/m 8,1 km/h (2 Bft) 97,22 %
15.06.2018 15:00 23,5 C 19,6 C 17,5 C 64 % 1014,0 hPa 0,0 l/m 0,53 h 0,00 h 562 W/m 5,9 km/h (2 Bft) 99,02 %
15.06.2018 16:00 24,0 C 24,9 C 20,6 C 61 % 1013,8 hPa 0,0 l/m 0,50 h 0,00 h 501 W/m 6,2 km/h (2 Bft) 96,30 %
15.06.2018 17:00 25,6 C 26,8 C 23,3 C 55 % 1013,5 hPa 0,0 l/m 1,00 h 0,00 h 667 W/m 7,4 km/h (2 Bft) 97,65 %
15.06.2018 18:00 25,8 C 25,7 C 23,3 C 52 % 1013,3 hPa 0,0 l/m 1,00 h 0,00 h 499 W/m 6,6 km/h (2 Bft) 99,19 %
15.06.2018 19:00 24,9 C 24,0 C 22,3 C 52 % 1013,5 hPa 0,0 l/m 0,73 h 0,00 h 232 W/m 5,4 km/h (1 Bft) 96,22 %
15.06.2018 20:00 23,3 C 22,3 C 21,1 C 55 % 1013,5 hPa 0,0 l/m 0,50 h 0,00 h 84 W/m 1,9 km/h (1 Bft) 97,94 %
15.06.2018 21:00 22,0 C 20,1 C 18,5 C 60 % 1013,4 hPa 0,0 l/m 0,53 h 0,00 h 27 W/m 0,1 km/h (0 Bft) 99,44 %
15.06.2018 22:00 19,7 C 17,5 C 16,6 C 68 % 1013,4 hPa 0,0 l/m 0,00 h 0,00 h 0 W/m 0,0 km/h (0 Bft) 96,87 %
15.06.2018 23:00 18,1 C 16,6 C 15,7 C 74 % 1013,3 hPa 0,0 l/m 0,00 h 0,00 h 0 W/m 0,2 km/h (0 Bft) 97,11 %
16.06.2018 00:00 16,8 C 15,3 C 14,7 C 79 % 1013,3 hPa 0,0 l/m 0,00 h 0,00 h 0 W/m 0,0 km/h (0 Bft) 97,23 %
16.06.2018 01:00 15,7 C 14,4 C 14,0 C 81 % 1013,3 hPa 0,0 l/m 0,00 h 0,00 h 0 W/m 0,0 km/h (0 Bft) 98,50 %
16.06.2018 02:00 15,1 C 15,1 C 14,1 C 83 % 1013,2 hPa 0,0 l/m 0,00 h 0,00 h 0 W/m 0,2 km/h (0 Bft) 96,91 %
16.06.2018 03:00 15,4 C 15,3 C 14,4 C 83 % 1013,2 hPa 0,0 l/m 0,00 h 0,00 h 0 W/m 0,6 km/h (0 Bft) 98,31 %
16.06.2018 04:00 15,2 C 14,2 C 13,9 C 85 % 1013,1 hPa 0,0 l/m 0,00 h 0,00 h 0 W/m 0,1 km/h (0 Bft) 95,87 %
16.06.2018 05:00 14,7 C 13,8 C 13,5 C 87 % 1013,0 hPa 0,0 l/m 0,00 h 0,00 h 14 W/m 0,2 km/h (0 Bft) 98,08 %
16.06.2018 06:00 14,8 C 15,3 C 14,6 C 90 % 1013,1 hPa 0,0 l/m 0,00 h 0,00 h 56 W/m 0,8 km/h (0 Bft) 99,04 %
16.06.2018 07:00 15,8 C 16,5 C 15,2 C 90 % 1013,2 hPa 0,0 l/m 0,00 h 0,00 h 117 W/m 1,9 km/h (1 Bft) 94,69 %
16.06.2018 08:00 17,3 C 18,9 C 16,8 C 88 % 1013,4 hPa 0,0 l/m 0,83 h 0,00 h 288 W/m 4,2 km/h (1 Bft) 98,87 %
16.06.2018 09:00 19,0 C 20,4 C 18,1 C 81 % 1013,5 hPa 0,0 l/m 0,97 h 0,00 h 361 W/m 4,7 km/h (1 Bft) 99,05 %
16.06.2018 10:00 20,0 C 22,0 C 18,8 C 78 % 1013,5 hPa 0,0 l/m 0,70 h 0,00 h 447 W/m 4,5 km/h (1 Bft) 95,02 %
16.06.2018 11:00 22,1 C 28,0 C 20,3 C 72 % 1013,3 hPa 0,0 l/m 1,00 h 0,00 h 640 W/m 5,9 km/h (2 Bft) 97,86 %
16.06.2018 12:00 24,6 C 29,0 C 22,3 C 59 % 1013,0 hPa 0,0 l/m 0,77 h 0,00 h 700 W/m 8,0 km/h (2 Bft) 98,12 %
16.06.2018 13:00 23,9 C 23,9 C 21,7 C 61 % 1012,9 hPa 0,0 l/m 0,07 h 0,00 h 274 W/m 9,4 km/h (2 Bft) 97,59 %
16.06.2018 14:00 23,5 C 25,4 C 22,2 C 64 % 1012,5 hPa 0,0 l/m 0,67 h 0,00 h 724 W/m 8,1 km/h (2 Bft) 96,72 %
16.06.2018 15:00 25,3 C 26,5 C 23,2 C 58 % 1011,9 hPa 0,0 l/m 0,77 h 0,00 h 719 W/m 6,5 km/h (2 Bft) 98,16 %
16.06.2018 16:00 25,7 C 26,4 C 23,3 C 55 % 1011,5 hPa 0,0 l/m 0,23 h 0,00 h 317 W/m 6,4 km/h (2 Bft) 98,86 %
16.06.2018 17:00 24,5 C 22,9 C 22,0 C 59 % 1011,5 hPa 0,2 l/m 0,00 h 0,17 h 63 W/m 5,4 km/h (1 Bft) 94,44 %
16.06.2018 18:00 21,5 C 18,3 C 17,9 C 82 % 1011,8 hPa 0,6 l/m 0,00 h 0,27 h 112 W/m 2,8 km/h (1 Bft) 98,83 %
16.06.2018 19:00 20,9 C 19,3 C 19,2 C 80 % 1011,9 hPa 0,0 l/m 0,63 h 0,07 h 218 W/m 5,4 km/h (1 Bft) 99,36 %
16.06.2018 20:00 21,1 C 20,4 C 19,6 C 72 % 1012,1 hPa 0,0 l/m 0,13 h 0,00 h 54 W/m 6,6 km/h (2 Bft) 94,24 %
16.06.2018 21:00 19,8 C 18,3 C 17,8 C 77 % 1012,6 hPa 0,0 l/m 0,00 h 0,00 h 10 W/m 2,9 km/h (1 Bft) 98,28 %
16.06.2018 22:00 18,5 C 17,1 C 17,0 C 80 % 1013,3 hPa 0,0 l/m 0,00 h 0,00 h 0 W/m 3,2 km/h (1 Bft) 98,72 %
16.06.2018 23:00 17,3 C 15,9 C 15,8 C 83 % 1013,7 hPa 0,0 l/m 0,00 h 0,00 h 0 W/m 0,2 km/h (0 Bft) 96,57 %
17.06.2018 00:00 16,2 C 14,6 C 14,2 C 85 % 1013,7 hPa 0,0 l/m 0,00 h 0,00 h 0 W/m 0,0 km/h (0 Bft) 98,00 %
17.06.2018 01:00 15,3 C 14,8 C 14,7 C 85 % 1013,8 hPa 0,0 l/m 0,00 h 0,00 h 0 W/m 1,9 km/h (1 Bft) 95,78 %
17.06.2018 02:00 15,1 C 14,2 C 14,2 C 84 % 1014,0 hPa 0,0 l/m 0,00 h 0,00 h 0 W/m 0,5 km/h (0 Bft) 98,29 %
17.06.2018 03:00 14,7 C 14,2 C 14,2 C 83 % 1014,1 hPa 0,0 l/m 0,00 h 0,00 h 0 W/m 1,3 km/h (1 Bft) 97,46 %
17.06.2018 04:00 14,9 C 14,4 C 14,4 C 83 % 1014,1 hPa 0,0 l/m 0,00 h 0,00 h 0 W/m 2,9 km/h (1 Bft) 99,07 %
17.06.2018 05:00 14,8 C 14,4 C 14,3 C 82 % 1014,3 hPa 0,0 l/m 0,00 h 0,00 h 10 W/m 2,4 km/h (1 Bft) 96,69 %
17.06.2018 06:00 15,2 C 15,2 C 14,6 C 82 % 1014,4 hPa 0,0 l/m 0,03 h 0,00 h 61 W/m 4,0 km/h (1 Bft) 96,33 %
17.06.2018 07:00 15,8 C 16,2 C 15,3 C 81 % 1014,5 hPa 0,0 l/m 0,03 h 0,00 h 119 W/m 7,0 km/h (2 Bft) 99,15 %
17.06.2018 08:00 16,8 C 17,3 C 15,9 C 78 % 1014,7 hPa 0,0 l/m 0,13 h 0,00 h 205 W/m 6,9 km/h (2 Bft) 97,31 %
17.06.2018 09:00 17,2 C 17,9 C 16,3 C 76 % 1015,1 hPa 0,0 l/m 0,30 h 0,00 h 288 W/m 8,6 km/h (2 Bft) 96,42 %
17.06.2018 10:00 18,2 C 19,1 C 17,3 C 72 % 1015,3 hPa 0,0 l/m 0,63 h 0,00 h 378 W/m 8,3 km/h (2 Bft) 98,30 %
17.06.2018 11:00 19,0 C 20,2 C 18,0 C 70 % 1015,4 hPa 0,0 l/m 0,63 h 0,00 h 426 W/m 10,3 km/h (2 Bft) 97,87 %
17.06.2018 12:00 19,0 C 19,7 C 18,0 C 69 % 1015,6 hPa 0,0 l/m 0,37 h 0,00 h 397 W/m 8,9 km/h (2 Bft) 97,90 %
17.06.2018 13:00 18,4 C 18,2 C 17,1 C 70 % 1016,0 hPa 0,0 l/m 0,00 h 0,00 h 199 W/m 7,3 km/h (2 Bft) 95,87 %
17.06.2018 14:00 18,0 C 18,5 C 17,1 C 70 % 1016,3 hPa 0,0 l/m 0,00 h 0,00 h 314 W/m 9,0 km/h (2 Bft) 99,15 %
17.06.2018 15:00 18,9 C 19,9 C 17,8 C 66 % 1016,4 hPa 0,0 l/m 0,63 h 0,00 h 483 W/m 8,7 km/h (2 Bft) 97,51 %
17.06.2018 16:00 18,9 C 19,2 C 17,8 C 65 % 1016,6 hPa 0,0 l/m 0,00 h 0,00 h 295 W/m 7,2 km/h (2 Bft) 96,73 %
17.06.2018 17:00 19,0 C 19,0 C 17,9 C 65 % 1016,7 hPa 0,0 l/m 0,00 h 0,17 h 250 W/m 7,4 km/h (2 Bft) 98,43 %
17.06.2018 18:00 18,9 C 18,9 C 17,9 C 66 % 1016,7 hPa 0,0 l/m 0,43 h 0,07 h 251 W/m 8,6 km/h (2 Bft) 96,22 %
17.06.2018 19:00 18,9 C 18,6 C 17,8 C 65 % 1017,1 hPa 0,0 l/m 0,40 h 0,00 h 186 W/m 6,6 km/h (2 Bft) 98,44 %
17.06.2018 20:00 18,4 C 17,6 C 17,2 C 67 % 1017,2 hPa 0,0 l/m 0,23 h 0,00 h 63 W/m 4,9 km/h (1 Bft) 97,58 %
17.06.2018 21:00 17,6 C 16,6 C 16,2 C 71 % 1017,3 hPa 0,0 l/m 0,00 h 0,00 h 10 W/m 3,2 km/h (1 Bft) 95,23 %
17.06.2018 22:00 16,8 C 15,7 C 15,6 C 77 % 1017,6 hPa 0,0 l/m 0,00 h 0,00 h 0 W/m 0,8 km/h (0 Bft) 98,29 %
17.06.2018 23:00 16,3 C 15,7 C 15,5 C 79 % 1017,6 hPa 0,0 l/m 0,00 h 0,00 h 0 W/m 1,7 km/h (1 Bft) 97,92 %
Min-Datum _ 14.06.18 14.06.18 14.06.18 15.06.18 11.06.18 - - - - 11.06.18 14.06.18
_ Min-Zeit 03:32 04:38 04:32 19:26 18:12 - - - - 01:22 05:40
Minimum _ 9,6 C 8,3 C 8,9 C 50 % 1008,0 hPa - - - - 0,0 km/h (0 Bft) 77,78 %
Max-Datum _ 15.06.18 16.06.18 15.06.18 15.06.18 17.06.18 14.06.18 15.06.18 14.06.18 16.06.18 13.06.18 11.06.18
_ Max-Zeit 17:48 12:22 17:28 06:14 22:42 17:06 08:28 18:08 15:06 15:08 00:20
Maximum _ 25,9 C 33,9 C 23,9 C 98 % 1017,8 hPa 1,0 l/m 0,08 h 0,07 h 1109 W/m 29,3 km/h
W-NW (5 Bft)
100,00 %
Durchschnitt _ 17,7 C 17,8 C 16,4 C 78 % 1012,9 hPa #3,4 l/m #34:19 h #5:12 h 270 W/m 5,9 km/h (2 Bft) 97,52 %
© 2018 W. Hausmann